Barrhead, Canada
Current Conditions -  °F | °C
As of 6:00 PM on Monday 20 Oct 2014 (Local Time) from CZVL Reporting Station
Overcast Overcast  
Wind Chill: 64°   Ceiling: 22000
Heat Index: 64°   Visibility: 9mi
Dew Point: 36°   Wind: 5mph
Humidity: 34%   Direction: 150°SSE
Pressure: 29.51"   Gusts: NA
Location:  54.12°N, 114.4°W
Report Text: CZVL 210000Z AUTO 15004KT 9SM OVC220 18/02 A2951 RMK TS/LTNG TEMPO UNAVBL SLP006 DENSITY ALT 3500FT
Loading
Personal Weather Stations






























Interactive Weather Map
Tropical Storm Tracking
New forecast layout! Learn more

10-Day Weather Forecast

Advertisements
Track Severe Weather on mobile